sensor_id;sensor_type;location;lat;lon;timestamp;temperature;humidity
20337;DHT22;10326;53.660;10.200;2023-04-25T00:02:00;11.40;81.50
20337;DHT22;10326;53.660;10.200;2023-04-25T00:04:28;11.40;81.40
20337;DHT22;10326;53.660;10.200;2023-04-25T00:06:59;11.40;81.30
20337;DHT22;10326;53.660;10.200;2023-04-25T00:09:28;11.40;81.50
20337;DHT22;10326;53.660;10.200;2023-04-25T00:11:55;11.30;81.10
20337;DHT22;10326;53.660;10.200;2023-04-25T00:14:22;11.40;81.50
20337;DHT22;10326;53.660;10.200;2023-04-25T00:16:49;11.30;81.70
20337;DHT22;10326;53.660;10.200;2023-04-25T00:19:17;11.30;81.30
20337;DHT22;10326;53.660;10.200;2023-04-25T00:21:44;11.30;81.40
20337;DHT22;10326;53.660;10.200;2023-04-25T00:24:13;11.30;81.40
20337;DHT22;10326;53.660;10.200;2023-04-25T00:26:40;11.20;81.30
20337;DHT22;10326;53.660;10.200;2023-04-25T00:29:07;11.20;81.20
20337;DHT22;10326;53.660;10.200;2023-04-25T00:31:34;11.20;81.40
20337;DHT22;10326;53.660;10.200;2023-04-25T00:34:02;11.10;81.40
20337;DHT22;10326;53.660;10.200;2023-04-25T00:36:29;11.10;81.30
20337;DHT22;10326;53.660;10.200;2023-04-25T00:38:56;11.10;81.00
20337;DHT22;10326;53.660;10.200;2023-04-25T00:41:26;11.20;81.30
20337;DHT22;10326;53.660;10.200;2023-04-25T00:43:54;11.10;81.40
20337;DHT22;10326;53.660;10.200;2023-04-25T00:46:22;11.10;81.20
20337;DHT22;10326;53.660;10.200;2023-04-25T00:48:50;11.10;80.80
20337;DHT22;10326;53.660;10.200;2023-04-25T00:51:19;11.00;80.50
20337;DHT22;10326;53.660;10.200;2023-04-25T00:53:49;11.00;80.60
20337;DHT22;10326;53.660;10.200;2023-04-25T00:56:16;10.90;80.50
20337;DHT22;10326;53.660;10.200;2023-04-25T00:58:45;10.80;80.40
20337;DHT22;10326;53.660;10.200;2023-04-25T01:01:12;10.80;80.50
20337;DHT22;10326;53.660;10.200;2023-04-25T01:03:40;10.80;80.50
20337;DHT22;10326;53.660;10.200;2023-04-25T01:06:08;10.70;80.40
20337;DHT22;10326;53.660;10.200;2023-04-25T01:08:37;10.70;80.30
20337;DHT22;10326;53.660;10.200;2023-04-25T01:11:05;10.70;80.70
20337;DHT22;10326;53.660;10.200;2023-04-25T01:13:32;10.60;80.40
20337;DHT22;10326;53.660;10.200;2023-04-25T01:16:02;10.60;80.60
20337;DHT22;10326;53.660;10.200;2023-04-25T01:18:29;10.60;80.80
20337;DHT22;10326;53.660;10.200;2023-04-25T01:21:02;10.60;80.60
20337;DHT22;10326;53.660;10.200;2023-04-25T01:23:34;10.60;80.90
20337;DHT22;10326;53.660;10.200;2023-04-25T01:26:01;10.50;80.50
20337;DHT22;10326;53.660;10.200;2023-04-25T01:28:28;10.50;80.50
20337;DHT22;10326;53.660;10.200;2023-04-25T01:30:56;10.50;80.60
20337;DHT22;10326;53.660;10.200;2023-04-25T01:33:24;10.50;80.40
20337;DHT22;10326;53.660;10.200;2023-04-25T01:35:51;10.50;80.20
20337;DHT22;10326;53.660;10.200;2023-04-25T01:38:21;10.50;80.10
20337;DHT22;10326;53.660;10.200;2023-04-25T01:40:49;10.50;80.20
20337;DHT22;10326;53.660;10.200;2023-04-25T01:43:18;10.40;80.00
20337;DHT22;10326;53.660;10.200;2023-04-25T01:45:46;10.40;79.90
20337;DHT22;10326;53.660;10.200;2023-04-25T01:48:14;10.40;80.10
20337;DHT22;10326;53.660;10.200;2023-04-25T01:50:43;10.40;79.70
20337;DHT22;10326;53.660;10.200;2023-04-25T01:53:13;10.30;79.20
20337;DHT22;10326;53.660;10.200;2023-04-25T01:55:44;10.30;78.90
20337;DHT22;10326;53.660;10.200;2023-04-25T01:58:14;10.30;78.90
20337;DHT22;10326;53.660;10.200;2023-04-25T02:00:56;10.20;78.70
20337;DHT22;10326;53.660;10.200;2023-04-25T02:03:26;10.20;78.30
20337;DHT22;10326;53.660;10.200;2023-04-25T02:05:54;10.20;78.00
20337;DHT22;10326;53.660;10.200;2023-04-25T02:08:22;10.10;78.20
20337;DHT22;10326;53.660;10.200;2023-04-25T02:10:50;10.10;77.90
20337;DHT22;10326;53.660;10.200;2023-04-25T02:13:18;10.10;77.80
20337;DHT22;10326;53.660;10.200;2023-04-25T02:16:01;10.00;77.80
20337;DHT22;10326;53.660;10.200;2023-04-25T02:18:29;10.10;78.00
20337;DHT22;10326;53.660;10.200;2023-04-25T02:20:57;10.00;77.70
20337;DHT22;10326;53.660;10.200;2023-04-25T02:23:25;10.00;77.50
20337;DHT22;10326;53.660;10.200;2023-04-25T02:25:53;10.00;77.60
20337;DHT22;10326;53.660;10.200;2023-04-25T02:28:20;10.00;77.50
20337;DHT22;10326;53.660;10.200;2023-04-25T02:30:47;9.90;77.50
20337;DHT22;10326;53.660;10.200;2023-04-25T02:33:14;9.90;77.00
20337;DHT22;10326;53.660;10.200;2023-04-25T02:35:42;9.90;77.00
20337;DHT22;10326;53.660;10.200;2023-04-25T02:38:09;9.90;76.90
20337;DHT22;10326;53.660;10.200;2023-04-25T02:40:36;9.90;76.90
20337;DHT22;10326;53.660;10.200;2023-04-25T02:43:04;9.80;76.70
20337;DHT22;10326;53.660;10.200;2023-04-25T02:45:31;9.80;76.70
20337;DHT22;10326;53.660;10.200;2023-04-25T02:47:58;9.80;76.60
20337;DHT22;10326;53.660;10.200;2023-04-25T02:50:25;9.80;76.40
20337;DHT22;10326;53.660;10.200;2023-04-25T02:52:52;9.80;76.70
20337;DHT22;10326;53.660;10.200;2023-04-25T02:55:25;9.80;76.50
20337;DHT22;10326;53.660;10.200;2023-04-25T02:57:52;9.80;76.40
20337;DHT22;10326;53.660;10.200;2023-04-25T03:00:34;9.80;76.40
20337;DHT22;10326;53.660;10.200;2023-04-25T03:03:01;9.80;76.20
20337;DHT22;10326;53.660;10.200;2023-04-25T03:05:28;9.80;75.70
20337;DHT22;10326;53.660;10.200;2023-04-25T03:07:55;9.80;75.50
20337;DHT22;10326;53.660;10.200;2023-04-25T03:10:23;9.80;75.60
20337;DHT22;10326;53.660;10.200;2023-04-25T03:12:50;9.80;75.50
20337;DHT22;10326;53.660;10.200;2023-04-25T03:15:17;9.80;75.70
20337;DHT22;10326;53.660;10.200;2023-04-25T03:17:47;9.80;75.30
20337;DHT22;10326;53.660;10.200;2023-04-25T03:20:14;9.80;74.50
20337;DHT22;10326;53.660;10.200;2023-04-25T03:22:41;9.70;74.70
20337;DHT22;10326;53.660;10.200;2023-04-25T03:25:08;9.70;75.10
20337;DHT22;10326;53.660;10.200;2023-04-25T03:27:35;9.70;74.70
20337;DHT22;10326;53.660;10.200;2023-04-25T03:30:03;9.70;74.40
20337;DHT22;10326;53.660;10.200;2023-04-25T03:32:33;9.60;74.40
20337;DHT22;10326;53.660;10.200;2023-04-25T03:35:02;9.60;74.20
20337;DHT22;10326;53.660;10.200;2023-04-25T03:37:31;9.60;74.10
20337;DHT22;10326;53.660;10.200;2023-04-25T03:39:58;9.50;74.00
20337;DHT22;10326;53.660;10.200;2023-04-25T03:42:33;9.50;74.00
20337;DHT22;10326;53.660;10.200;2023-04-25T03:45:00;9.50;74.00
20337;DHT22;10326;53.660;10.200;2023-04-25T03:47:27;9.40;73.90
20337;DHT22;10326;53.660;10.200;2023-04-25T03:49:55;9.40;74.00
20337;DHT22;10326;53.660;10.200;2023-04-25T03:52:25;9.40;74.00
20337;DHT22;10326;53.660;10.200;2023-04-25T03:54:53;9.40;73.60
20337;DHT22;10326;53.660;10.200;2023-04-25T03:57:22;9.40;73.50
20337;DHT22;10326;53.660;10.200;2023-04-25T03:59:49;9.30;73.30
20337;DHT22;10326;53.660;10.200;2023-04-25T04:02:17;9.30;73.30
20337;DHT22;10326;53.660;10.200;2023-04-25T04:04:45;9.30;73.40
20337;DHT22;10326;53.660;10.200;2023-04-25T04:07:13;9.30;73.30
20337;DHT22;10326;53.660;10.200;2023-04-25T04:09:45;9.30;73.40
20337;DHT22;10326;53.660;10.200;2023-04-25T04:12:17;9.30;73.10
20337;DHT22;10326;53.660;10.200;2023-04-25T04:14:45;9.30;73.20
20337;DHT22;10326;53.660;10.200;2023-04-25T04:17:11;9.30;73.30
20337;DHT22;10326;53.660;10.200;2023-04-25T04:19:39;9.30;73.30
20337;DHT22;10326;53.660;10.200;2023-04-25T04:22:12;9.30;73.10
20337;DHT22;10326;53.660;10.200;2023-04-25T04:24:40;9.30;72.80
20337;DHT22;10326;53.660;10.200;2023-04-25T04:27:13;9.30;72.90
20337;DHT22;10326;53.660;10.200;2023-04-25T04:29:47;9.30;72.80
20337;DHT22;10326;53.660;10.200;2023-04-25T04:32:36;9.30;72.70
20337;DHT22;10326;53.660;10.200;2023-04-25T04:35:05;9.20;72.60
20337;DHT22;10326;53.660;10.200;2023-04-25T04:37:34;9.20;72.30
20337;DHT22;10326;53.660;10.200;2023-04-25T04:40:03;9.20;72.10
20337;DHT22;10326;53.660;10.200;2023-04-25T04:42:43;9.20;72.10
20337;DHT22;10326;53.660;10.200;2023-04-25T04:45:24;9.20;72.00
20337;DHT22;10326;53.660;10.200;2023-04-25T04:48:11;9.20;72.20
20337;DHT22;10326;53.660;10.200;2023-04-25T04:50:58;9.20;72.10
20337;DHT22;10326;53.660;10.200;2023-04-25T04:53:43;9.10;72.20
20337;DHT22;10326;53.660;10.200;2023-04-25T04:56:29;9.10;72.30
20337;DHT22;10326;53.660;10.200;2023-04-25T04:59:14;9.10;72.20
20337;DHT22;10326;53.660;10.200;2023-04-25T05:01:59;9.10;72.20
20337;DHT22;10326;53.660;10.200;2023-04-25T05:04:43;9.20;72.20
20337;DHT22;10326;53.660;10.200;2023-04-25T05:07:25;9.10;72.10
20337;DHT22;10326;53.660;10.200;2023-04-25T05:10:03;9.10;71.90
20337;DHT22;10326;53.660;10.200;2023-04-25T05:12:43;9.10;72.00
20337;DHT22;10326;53.660;10.200;2023-04-25T05:15:18;9.10;72.00
20337;DHT22;10326;53.660;10.200;2023-04-25T05:18:11;9.10;71.90
20337;DHT22;10326;53.660;10.200;2023-04-25T05:20:51;9.20;71.90
20337;DHT22;10326;53.660;10.200;2023-04-25T05:23:27;9.20;71.90
20337;DHT22;10326;53.660;10.200;2023-04-25T05:26:09;9.20;71.80
20337;DHT22;10326;53.660;10.200;2023-04-25T05:28:52;9.30;72.10
20337;DHT22;10326;53.660;10.200;2023-04-25T05:31:41;9.30;71.70
20337;DHT22;10326;53.660;10.200;2023-04-25T05:34:13;9.30;71.50
20337;DHT22;10326;53.660;10.200;2023-04-25T05:36:53;9.30;71.00
20337;DHT22;10326;53.660;10.200;2023-04-25T05:39:21;9.30;71.00
20337;DHT22;10326;53.660;10.200;2023-04-25T05:42:20;9.30;71.30
20337;DHT22;10326;53.660;10.200;2023-04-25T05:44:56;9.20;71.00
20337;DHT22;10326;53.660;10.200;2023-04-25T05:47:45;9.20;71.20
20337;DHT22;10326;53.660;10.200;2023-04-25T05:50:22;9.10;71.30
20337;DHT22;10326;53.660;10.200;2023-04-25T05:53:10;9.20;71.90
20337;DHT22;10326;53.660;10.200;2023-04-25T05:55:42;9.20;71.90
20337;DHT22;10326;53.660;10.200;2023-04-25T05:58:21;9.10;71.60
20337;DHT22;10326;53.660;10.200;2023-04-25T06:00:48;9.10;71.70
20337;DHT22;10326;53.660;10.200;2023-04-25T06:03:18;9.10;72.00
20337;DHT22;10326;53.660;10.200;2023-04-25T06:05:45;9.10;72.00
20337;DHT22;10326;53.660;10.200;2023-04-25T06:08:12;9.00;72.10
20337;DHT22;10326;53.660;10.200;2023-04-25T06:10:40;9.00;72.10
20337;DHT22;10326;53.660;10.200;2023-04-25T06:13:07;9.00;72.20
20337;DHT22;10326;53.660;10.200;2023-04-25T06:15:35;9.00;72.20
20337;DHT22;10326;53.660;10.200;2023-04-25T06:18:02;9.00;72.40
20337;DHT22;10326;53.660;10.200;2023-04-25T06:20:31;8.90;72.50
20337;DHT22;10326;53.660;10.200;2023-04-25T06:23:00;9.00;72.80
20337;DHT22;10326;53.660;10.200;2023-04-25T06:25:38;9.00;72.90
20337;DHT22;10326;53.660;10.200;2023-04-25T06:28:05;9.00;72.90
20337;DHT22;10326;53.660;10.200;2023-04-25T06:30:32;9.00;73.20
20337;DHT22;10326;53.660;10.200;2023-04-25T06:33:04;9.00;73.30
20337;DHT22;10326;53.660;10.200;2023-04-25T06:35:33;9.10;73.30
20337;DHT22;10326;53.660;10.200;2023-04-25T06:38:01;9.10;73.40
20337;DHT22;10326;53.660;10.200;2023-04-25T06:40:30;9.10;73.50
20337;DHT22;10326;53.660;10.200;2023-04-25T06:42:58;9.10;73.50
20337;DHT22;10326;53.660;10.200;2023-04-25T06:45:42;9.20;73.60
20337;DHT22;10326;53.660;10.200;2023-04-25T06:48:09;9.30;73.70
20337;DHT22;10326;53.660;10.200;2023-04-25T06:50:37;9.30;73.70
20337;DHT22;10326;53.660;10.200;2023-04-25T06:53:04;9.30;73.60
20337;DHT22;10326;53.660;10.200;2023-04-25T06:55:31;9.40;73.50
20337;DHT22;10326;53.660;10.200;2023-04-25T06:58:18;9.40;73.20
20337;DHT22;10326;53.660;10.200;2023-04-25T07:00:54;9.40;73.20
20337;DHT22;10326;53.660;10.200;2023-04-25T07:03:24;9.40;73.10
20337;DHT22;10326;53.660;10.200;2023-04-25T07:05:56;9.40;72.90
20337;DHT22;10326;53.660;10.200;2023-04-25T07:08:24;9.40;72.90
20337;DHT22;10326;53.660;10.200;2023-04-25T07:10:51;9.40;72.90
20337;DHT22;10326;53.660;10.200;2023-04-25T07:13:18;9.40;72.90
20337;DHT22;10326;53.660;10.200;2023-04-25T07:15:45;9.30;73.20
20337;DHT22;10326;53.660;10.200;2023-04-25T07:18:14;9.30;73.40
20337;DHT22;10326;53.660;10.200;2023-04-25T07:20:43;9.30;73.80
20337;DHT22;10326;53.660;10.200;2023-04-25T07:23:11;9.30;74.20
20337;DHT22;10326;53.660;10.200;2023-04-25T07:25:39;9.30;74.30
20337;DHT22;10326;53.660;10.200;2023-04-25T07:28:06;9.30;74.20
20337;DHT22;10326;53.660;10.200;2023-04-25T07:30:34;9.30;73.70
20337;DHT22;10326;53.660;10.200;2023-04-25T07:33:03;9.30;73.90
20337;DHT22;10326;53.660;10.200;2023-04-25T07:35:31;9.40;74.00
20337;DHT22;10326;53.660;10.200;2023-04-25T07:37:58;9.30;73.70
20337;DHT22;10326;53.660;10.200;2023-04-25T07:40:27;9.30;73.80
20337;DHT22;10326;53.660;10.200;2023-04-25T07:43:00;9.40;74.00
20337;DHT22;10326;53.660;10.200;2023-04-25T07:45:37;9.40;73.90
20337;DHT22;10326;53.660;10.200;2023-04-25T07:48:04;9.40;73.50
20337;DHT22;10326;53.660;10.200;2023-04-25T07:50:35;9.50;73.70
20337;DHT22;10326;53.660;10.200;2023-04-25T07:53:02;9.50;73.60
20337;DHT22;10326;53.660;10.200;2023-04-25T07:55:38;9.60;73.50
20337;DHT22;10326;53.660;10.200;2023-04-25T07:58:12;9.60;73.40
20337;DHT22;10326;53.660;10.200;2023-04-25T08:00:43;9.60;73.60
20337;DHT22;10326;53.660;10.200;2023-04-25T08:03:28;9.60;73.50
20337;DHT22;10326;53.660;10.200;2023-04-25T08:05:57;9.70;73.40
20337;DHT22;10326;53.660;10.200;2023-04-25T08:08:27;9.70;73.40
20337;DHT22;10326;53.660;10.200;2023-04-25T08:10:56;9.70;73.50
20337;DHT22;10326;53.660;10.200;2023-04-25T08:13:23;9.80;73.50
20337;DHT22;10326;53.660;10.200;2023-04-25T08:15:51;9.80;73.60
20337;DHT22;10326;53.660;10.200;2023-04-25T08:18:18;9.90;73.70
20337;DHT22;10326;53.660;10.200;2023-04-25T08:20:47;10.00;73.80
20337;DHT22;10326;53.660;10.200;2023-04-25T08:23:15;10.10;73.70
20337;DHT22;10326;53.660;10.200;2023-04-25T08:26:02;10.10;73.20
20337;DHT22;10326;53.660;10.200;2023-04-25T08:28:31;10.10;72.60
20337;DHT22;10326;53.660;10.200;2023-04-25T08:31:00;10.10;72.60
20337;DHT22;10326;53.660;10.200;2023-04-25T08:33:34;10.10;72.60
20337;DHT22;10326;53.660;10.200;2023-04-25T08:36:21;10.00;72.60
20337;DHT22;10326;53.660;10.200;2023-04-25T08:38:48;9.90;73.10
20337;DHT22;10326;53.660;10.200;2023-04-25T08:41:21;9.80;73.60
20337;DHT22;10326;53.660;10.200;2023-04-25T08:43:49;9.80;73.80
20337;DHT22;10326;53.660;10.200;2023-04-25T08:46:18;9.80;74.00
20337;DHT22;10326;53.660;10.200;2023-04-25T08:49:12;9.70;74.40
20337;DHT22;10326;53.660;10.200;2023-04-25T08:51:44;9.70;74.40
20337;DHT22;10326;53.660;10.200;2023-04-25T08:54:15;9.70;74.40
20337;DHT22;10326;53.660;10.200;2023-04-25T08:56:47;9.80;74.40
20337;DHT22;10326;53.660;10.200;2023-04-25T08:59:15;9.80;74.60
20337;DHT22;10326;53.660;10.200;2023-04-25T09:01:44;9.80;73.50
20337;DHT22;10326;53.660;10.200;2023-04-25T09:04:12;9.80;74.00
20337;DHT22;10326;53.660;10.200;2023-04-25T09:06:40;9.90;74.20
20337;DHT22;10326;53.660;10.200;2023-04-25T09:09:08;9.90;73.80
20337;DHT22;10326;53.660;10.200;2023-04-25T09:11:36;10.00;73.90
20337;DHT22;10326;53.660;10.200;2023-04-25T09:14:13;10.10;73.90
20337;DHT22;10326;53.660;10.200;2023-04-25T09:17:13;10.20;72.90
20337;DHT22;10326;53.660;10.200;2023-04-25T09:19:43;10.20;72.90
20337;DHT22;10326;53.660;10.200;2023-04-25T09:22:31;10.30;73.30
20337;DHT22;10326;53.660;10.200;2023-04-25T09:25:02;10.30;73.00
20337;DHT22;10326;53.660;10.200;2023-04-25T09:27:32;10.30;72.30
20337;DHT22;10326;53.660;10.200;2023-04-25T09:30:08;10.30;70.80
20337;DHT22;10326;53.660;10.200;2023-04-25T09:32:50;10.30;70.80
20337;DHT22;10326;53.660;10.200;2023-04-25T09:35:24;10.40;70.70
20337;DHT22;10326;53.660;10.200;2023-04-25T09:37:52;10.40;70.60
20337;DHT22;10326;53.660;10.200;2023-04-25T09:40:41;10.50;71.30
20337;DHT22;10326;53.660;10.200;2023-04-25T09:43:20;10.60;70.10
20337;DHT22;10326;53.660;10.200;2023-04-25T09:45:51;10.60;68.30
20337;DHT22;10326;53.660;10.200;2023-04-25T09:48:22;10.70;68.80
20337;DHT22;10326;53.660;10.200;2023-04-25T09:51:05;10.70;67.90
20337;DHT22;10326;53.660;10.200;2023-04-25T09:53:33;10.80;66.40
20337;DHT22;10326;53.660;10.200;2023-04-25T09:56:12;10.80;67.20
20337;DHT22;10326;53.660;10.200;2023-04-25T09:58:41;10.90;67.50
20337;DHT22;10326;53.660;10.200;2023-04-25T10:01:11;10.90;67.20
20337;DHT22;10326;53.660;10.200;2023-04-25T10:03:56;10.90;67.00
20337;DHT22;10326;53.660;10.200;2023-04-25T10:06:38;10.90;67.10
20337;DHT22;10326;53.660;10.200;2023-04-25T10:09:07;10.90;67.60
20337;DHT22;10326;53.660;10.200;2023-04-25T10:11:36;10.80;67.60
20337;DHT22;10326;53.660;10.200;2023-04-25T10:14:05;10.80;68.00
20337;DHT22;10326;53.660;10.200;2023-04-25T10:16:34;10.80;67.80
20337;DHT22;10326;53.660;10.200;2023-04-25T10:19:02;10.70;68.50
20337;DHT22;10326;53.660;10.200;2023-04-25T10:21:32;10.70;68.80
20337;DHT22;10326;53.660;10.200;2023-04-25T10:24:00;10.80;69.30
20337;DHT22;10326;53.660;10.200;2023-04-25T10:26:28;10.80;69.40
20337;DHT22;10326;53.660;10.200;2023-04-25T10:28:55;10.90;68.20
20337;DHT22;10326;53.660;10.200;2023-04-25T10:31:29;11.00;67.10
20337;DHT22;10326;53.660;10.200;2023-04-25T10:34:13;11.00;64.60
20337;DHT22;10326;53.660;10.200;2023-04-25T10:36:42;11.10;65.20
20337;DHT22;10326;53.660;10.200;2023-04-25T10:39:09;11.20;65.10
20337;DHT22;10326;53.660;10.200;2023-04-25T10:41:46;11.30;65.00
20337;DHT22;10326;53.660;10.200;2023-04-25T10:44:14;11.40;63.80
20337;DHT22;10326;53.660;10.200;2023-04-25T10:46:47;11.50;63.80
20337;DHT22;10326;53.660;10.200;2023-04-25T10:49:30;11.60;64.80
20337;DHT22;10326;53.660;10.200;2023-04-25T10:52:18;11.70;62.80
20337;DHT22;10326;53.660;10.200;2023-04-25T10:54:52;11.70;63.70
20337;DHT22;10326;53.660;10.200;2023-04-25T10:57:30;11.70;64.70
20337;DHT22;10326;53.660;10.200;2023-04-25T11:00:07;11.80;64.00
20337;DHT22;10326;53.660;10.200;2023-04-25T11:02:43;11.80;62.90
20337;DHT22;10326;53.660;10.200;2023-04-25T11:05:30;11.80;62.00
20337;DHT22;10326;53.660;10.200;2023-04-25T11:07:59;11.70;61.10
20337;DHT22;10326;53.660;10.200;2023-04-25T11:10:30;11.70;62.50
20337;DHT22;10326;53.660;10.200;2023-04-25T11:12:58;11.50;61.50
20337;DHT22;10326;53.660;10.200;2023-04-25T11:15:26;11.40;62.30
20337;DHT22;10326;53.660;10.200;2023-04-25T11:17:54;11.30;63.10
20337;DHT22;10326;53.660;10.200;2023-04-25T11:20:24;11.30;63.90
20337;DHT22;10326;53.660;10.200;2023-04-25T11:22:54;11.30;63.00
20337;DHT22;10326;53.660;10.200;2023-04-25T11:25:24;11.30;62.10
20337;DHT22;10326;53.660;10.200;2023-04-25T11:27:53;11.30;61.80
20337;DHT22;10326;53.660;10.200;2023-04-25T11:30:22;11.30;62.70
20337;DHT22;10326;53.660;10.200;2023-04-25T11:32:51;11.20;61.80
20337;DHT22;10326;53.660;10.200;2023-04-25T11:35:18;11.20;62.70
20337;DHT22;10326;53.660;10.200;2023-04-25T11:37:47;11.20;63.20
20337;DHT22;10326;53.660;10.200;2023-04-25T11:40:15;11.30;62.70
20337;DHT22;10326;53.660;10.200;2023-04-25T11:42:44;11.30;63.60
20337;DHT22;10326;53.660;10.200;2023-04-25T11:45:12;11.40;63.20
20337;DHT22;10326;53.660;10.200;2023-04-25T11:47:40;11.50;64.60
20337;DHT22;10326;53.660;10.200;2023-04-25T11:50:08;11.60;64.30
20337;DHT22;10326;53.660;10.200;2023-04-25T11:52:37;11.70;64.80
20337;DHT22;10326;53.660;10.200;2023-04-25T11:55:08;11.80;64.30
20337;DHT22;10326;53.660;10.200;2023-04-25T11:57:38;12.00;64.50
20337;DHT22;10326;53.660;10.200;2023-04-25T12:00:11;12.10;63.30
20337;DHT22;10326;53.660;10.200;2023-04-25T12:02:41;12.20;63.90
20337;DHT22;10326;53.660;10.200;2023-04-25T12:05:09;12.20;62.20
20337;DHT22;10326;53.660;10.200;2023-04-25T12:07:36;12.30;62.60
20337;DHT22;10326;53.660;10.200;2023-04-25T12:10:06;12.30;61.40
20337;DHT22;10326;53.660;10.200;2023-04-25T12:12:35;12.30;61.70
20337;DHT22;10326;53.660;10.200;2023-04-25T12:15:09;12.30;62.70
20337;DHT22;10326;53.660;10.200;2023-04-25T12:17:38;12.40;61.50
20337;DHT22;10326;53.660;10.200;2023-04-25T12:20:08;12.40;60.80
20337;DHT22;10326;53.660;10.200;2023-04-25T12:22:36;12.50;59.00
20337;DHT22;10326;53.660;10.200;2023-04-25T12:25:03;12.60;59.10
20337;DHT22;10326;53.660;10.200;2023-04-25T12:27:32;12.50;59.10
20337;DHT22;10326;53.660;10.200;2023-04-25T12:30:01;12.50;58.70
20337;DHT22;10326;53.660;10.200;2023-04-25T12:32:29;12.40;58.80
20337;DHT22;10326;53.660;10.200;2023-04-25T12:34:56;12.40;59.70
20337;DHT22;10326;53.660;10.200;2023-04-25T12:37:23;12.40;58.80
20337;DHT22;10326;53.660;10.200;2023-04-25T12:39:51;12.40;59.10
20337;DHT22;10326;53.660;10.200;2023-04-25T12:42:17;12.40;58.30
20337;DHT22;10326;53.660;10.200;2023-04-25T12:44:46;12.30;58.80
20337;DHT22;10326;53.660;10.200;2023-04-25T12:47:14;12.30;58.60
20337;DHT22;10326;53.660;10.200;2023-04-25T12:49:41;12.30;58.80
20337;DHT22;10326;53.660;10.200;2023-04-25T12:52:08;12.30;58.80
20337;DHT22;10326;53.660;10.200;2023-04-25T12:54:35;12.30;59.20
20337;DHT22;10326;53.660;10.200;2023-04-25T12:57:02;12.30;59.80
20337;DHT22;10326;53.660;10.200;2023-04-25T12:59:29;12.30;59.80
20337;DHT22;10326;53.660;10.200;2023-04-25T13:01:57;12.30;59.60
20337;DHT22;10326;53.660;10.200;2023-04-25T13:04:24;12.30;59.20
20337;DHT22;10326;53.660;10.200;2023-04-25T13:06:51;12.20;59.20
20337;DHT22;10326;53.660;10.200;2023-04-25T13:09:18;12.10;59.00
20337;DHT22;10326;53.660;10.200;2023-04-25T13:11:46;12.00;59.60
20337;DHT22;10326;53.660;10.200;2023-04-25T13:14:13;11.90;59.20
20337;DHT22;10326;53.660;10.200;2023-04-25T13:16:41;11.90;59.10
20337;DHT22;10326;53.660;10.200;2023-04-25T13:19:09;11.80;58.70
20337;DHT22;10326;53.660;10.200;2023-04-25T13:21:37;11.80;58.80
20337;DHT22;10326;53.660;10.200;2023-04-25T13:24:04;11.80;59.10
20337;DHT22;10326;53.660;10.200;2023-04-25T13:26:31;11.90;59.20
20337;DHT22;10326;53.660;10.200;2023-04-25T13:28:58;11.90;59.20
20337;DHT22;10326;53.660;10.200;2023-04-25T13:31:26;12.00;59.00
20337;DHT22;10326;53.660;10.200;2023-04-25T13:33:52;12.00;59.00
20337;DHT22;10326;53.660;10.200;2023-04-25T13:36:21;12.00;59.00
20337;DHT22;10326;53.660;10.200;2023-04-25T13:38:48;12.00;59.40
20337;DHT22;10326;53.660;10.200;2023-04-25T13:41:15;12.00;60.00
20337;DHT22;10326;53.660;10.200;2023-04-25T13:43:45;12.10;60.00
20337;DHT22;10326;53.660;10.200;2023-04-25T13:50:25;12.20;61.20
20337;DHT22;10326;53.660;10.200;2023-04-25T13:52:54;12.40;60.90
20337;DHT22;10326;53.660;10.200;2023-04-25T13:55:21;12.40;60.80
20337;DHT22;10326;53.660;10.200;2023-04-25T13:57:47;12.40;60.60
20337;DHT22;10326;53.660;10.200;2023-04-25T14:00:15;12.40;60.30
20337;DHT22;10326;53.660;10.200;2023-04-25T14:02:43;12.40;61.00
20337;DHT22;10326;53.660;10.200;2023-04-25T14:05:10;12.20;61.90
20337;DHT22;10326;53.660;10.200;2023-04-25T14:07:37;12.10;63.20
20337;DHT22;10326;53.660;10.200;2023-04-25T14:10:06;12.10;64.20
20337;DHT22;10326;53.660;10.200;2023-04-25T14:12:33;12.10;64.40
20337;DHT22;10326;53.660;10.200;2023-04-25T14:15:00;12.00;63.80
20337;DHT22;10326;53.660;10.200;2023-04-25T14:17:27;12.10;64.30
20337;DHT22;10326;53.660;10.200;2023-04-25T14:19:54;12.00;64.40
20337;DHT22;10326;53.660;10.200;2023-04-25T14:22:21;12.10;64.00
20337;DHT22;10326;53.660;10.200;2023-04-25T14:24:48;12.30;64.60
20337;DHT22;10326;53.660;10.200;2023-04-25T14:27:16;12.40;64.50
20337;DHT22;10326;53.660;10.200;2023-04-25T14:29:43;12.50;62.50
20337;DHT22;10326;53.660;10.200;2023-04-25T14:32:10;12.60;61.30
20337;DHT22;10326;53.660;10.200;2023-04-25T14:34:37;12.70;59.70
20337;DHT22;10326;53.660;10.200;2023-04-25T14:37:04;12.70;58.70
20337;DHT22;10326;53.660;10.200;2023-04-25T14:39:31;12.80;58.50
20337;DHT22;10326;53.660;10.200;2023-04-25T14:41:58;12.90;58.70
20337;DHT22;10326;53.660;10.200;2023-04-25T14:44:26;12.90;58.30
20337;DHT22;10326;53.660;10.200;2023-04-25T14:46:53;12.90;58.60
20337;DHT22;10326;53.660;10.200;2023-04-25T14:49:20;13.00;59.00
20337;DHT22;10326;53.660;10.200;2023-04-25T14:51:47;13.10;58.60
20337;DHT22;10326;53.660;10.200;2023-04-25T14:54:14;13.10;58.00
20337;DHT22;10326;53.660;10.200;2023-04-25T14:56:42;13.20;57.10
20337;DHT22;10326;53.660;10.200;2023-04-25T14:59:09;13.20;57.30
20337;DHT22;10326;53.660;10.200;2023-04-25T15:01:37;13.20;57.30
20337;DHT22;10326;53.660;10.200;2023-04-25T15:04:04;13.20;56.90
20337;DHT22;10326;53.660;10.200;2023-04-25T15:06:31;13.20;56.60
20337;DHT22;10326;53.660;10.200;2023-04-25T15:08:58;13.10;56.60
20337;DHT22;10326;53.660;10.200;2023-04-25T15:11:25;13.00;56.60
20337;DHT22;10326;53.660;10.200;2023-04-25T15:13:52;12.90;56.80
20337;DHT22;10326;53.660;10.200;2023-04-25T15:16:20;12.70;56.60
20337;DHT22;10326;53.660;10.200;2023-04-25T15:18:48;12.60;56.80
20337;DHT22;10326;53.660;10.200;2023-04-25T15:21:15;12.50;57.30
20337;DHT22;10326;53.660;10.200;2023-04-25T15:23:42;12.30;57.50
20337;DHT22;10326;53.660;10.200;2023-04-25T15:26:09;12.20;57.70
20337;DHT22;10326;53.660;10.200;2023-04-25T15:28:36;12.10;57.40
20337;DHT22;10326;53.660;10.200;2023-04-25T15:31:03;12.00;57.60
20337;DHT22;10326;53.660;10.200;2023-04-25T15:33:31;11.80;56.20
20337;DHT22;10326;53.660;10.200;2023-04-25T15:35:59;11.70;56.30
20337;DHT22;10326;53.660;10.200;2023-04-25T15:38:28;11.60;56.30
20337;DHT22;10326;53.660;10.200;2023-04-25T15:40:55;11.50;56.80
20337;DHT22;10326;53.660;10.200;2023-04-25T15:43:23;11.40;57.20
20337;DHT22;10326;53.660;10.200;2023-04-25T15:45:49;11.40;57.70
20337;DHT22;10326;53.660;10.200;2023-04-25T15:48:16;11.40;57.90